Time;durP1;ratioP1;P1;durP2;ratioP2;P2;SDS_P1;SDS_P2;PMS_P1;PMS_P2;Temp;Humidity;BMP_temperature;BMP_pressure;BME280_temperature;BME280_humidity;BME280_pressure;Samples;Min_cycle;Max_cycle;Signal;HPM_P1;HPM_P2
2023/11/26 00:01:03;;;;;;;8.33;3.67;;;;;;;;;;5025463;28;20590;-67
2023/11/26 00:03:28;;;;;;;11.40;3.90;;;;;;;;;;5022422;28;20490;-68
2023/11/26 00:05:53;;;;;;;8.37;3.97;;;;;;;;;;5023445;28;20181;-66
2023/11/26 00:08:18;;;;;;;7.87;2.97;;;;;;;;;;5022870;28;20205;-68
2023/11/26 00:10:43;;;;;;;9.10;3.03;;;;;;;;;;5023854;28;20723;-67
2023/11/26 00:13:08;;;;;;;7.53;3.47;;;;;;;;;;5023775;28;20189;-67
2023/11/26 00:15:34;;;;;;;6.17;3.20;;;;;;;;;;5006453;28;20182;-68
2023/11/26 00:17:59;;;;;;;12.37;3.53;;;;;;;;;;5024752;28;20190;-68
2023/11/26 00:20:24;;;;;;;10.80;3.80;;;;;;;;;;5023607;28;20644;-66
2023/11/26 00:22:49;;;;;;;7.70;3.10;;;;;;;;;;5024348;28;20189;-68
2023/11/26 00:25:14;;;;;;;9.10;4.03;;;;;;;;;;5019952;28;20179;-68
2023/11/26 00:27:40;;;;;;;8.43;3.37;;;;;;;;;;5024073;28;20264;-66
2023/11/26 00:30:05;;;;;;;14.37;3.80;;;;;;;;;;5020720;28;20175;-68
2023/11/26 00:32:30;;;;;;;6.33;3.27;;;;;;;;;;5024611;28;20195;-65
2023/11/26 00:34:56;;;;;;;5.10;3.00;;;;;;;;;;5022945;28;20654;-65
2023/11/26 00:37:21;;;;;;;19.37;5.13;;;;;;;;;;5022686;28;20271;-65
2023/11/26 00:39:46;;;;;;;8.40;3.10;;;;;;;;;;5022825;28;20264;-65
2023/11/26 00:42:11;;;;;;;14.17;4.77;;;;;;;;;;5024120;28;20661;-65
2023/11/26 00:44:37;;;;;;;6.07;3.97;;;;;;;;;;5024470;28;20177;-66
2023/11/26 00:47:02;;;;;;;15.57;3.80;;;;;;;;;;5023332;28;20234;-67
2023/11/26 00:49:27;;;;;;;8.30;3.27;;;;;;;;;;5023216;28;20203;-68
2023/11/26 00:51:53;;;;;;;8.23;3.30;;;;;;;;;;5022661;28;20217;-68
2023/11/26 00:54:18;;;;;;;5.53;3.17;;;;;;;;;;5018342;28;20258;-68
2023/11/26 00:56:43;;;;;;;6.67;4.23;;;;;;;;;;5023866;28;20265;-68
2023/11/26 00:59:09;;;;;;;11.53;3.53;;;;;;;;;;5022596;28;20178;-67
2023/11/26 01:01:34;;;;;;;9.53;3.20;;;;;;;;;;5024358;28;20198;-68
2023/11/26 01:03:59;;;;;;;7.10;2.70;;;;;;;;;;5023419;28;20183;-68
2023/11/26 01:06:25;;;;;;;8.90;2.93;;;;;;;;;;5023475;28;20178;-66
2023/11/26 01:08:50;;;;;;;11.90;3.20;;;;;;;;;;5028663;28;20205;-66
2023/11/26 01:11:15;;;;;;;6.83;3.07;;;;;;;;;;5028663;28;20202;-66
2023/11/26 01:13:41;;;;;;;12.37;3.47;;;;;;;;;;5025172;28;20262;-66
2023/11/26 01:16:07;;;;;;;9.17;3.10;;;;;;;;;;5028793;28;20185;-66
2023/11/26 01:18:32;;;;;;;5.93;2.80;;;;;;;;;;5031773;28;20666;-66
2023/11/26 01:20:57;;;;;;;7.60;2.67;;;;;;;;;;5029566;28;20205;-66
2023/11/26 01:23:22;;;;;;;10.07;3.47;;;;;;;;;;5030746;28;20174;-66
2023/11/26 01:25:48;;;;;;;6.50;2.80;;;;;;;;;;5031978;28;20171;-66
2023/11/26 01:28:13;;;;;;;11.73;3.40;;;;;;;;;;5022907;28;20230;-66
2023/11/26 01:30:38;;;;;;;8.70;3.03;;;;;;;;;;5011458;28;21680;-66
2023/11/26 01:33:04;;;;;;;5.07;2.50;;;;;;;;;;5021699;28;20182;-67
2023/11/26 01:35:29;;;;;;;10.40;3.00;;;;;;;;;;5025662;28;20228;-66
2023/11/26 01:37:55;;;;;;;6.73;2.67;;;;;;;;;;5027611;28;20182;-66
2023/11/26 01:40:20;;;;;;;5.47;2.83;;;;;;;;;;5026921;28;20182;-66
2023/11/26 01:42:45;;;;;;;6.00;2.50;;;;;;;;;;5032353;28;20277;-67
2023/11/26 01:45:11;;;;;;;6.03;2.63;;;;;;;;;;5028367;28;20182;-67
2023/11/26 01:47:38;;;;;;;8.47;3.50;;;;;;;;;;5027744;28;20240;-67
2023/11/26 01:50:03;;;;;;;4.67;2.40;;;;;;;;;;5025342;28;20236;-67
2023/11/26 01:52:28;;;;;;;9.93;3.70;;;;;;;;;;5023420;28;20191;-68
2023/11/26 01:54:54;;;;;;;11.90;3.73;;;;;;;;;;5023494;28;20252;-67
2023/11/26 01:57:20;;;;;;;5.20;2.60;;;;;;;;;;5011988;28;20247;-67
2023/11/26 01:59:45;;;;;;;5.47;2.60;;;;;;;;;;5012685;28;20182;-67
2023/11/26 02:02:10;;;;;;;7.13;2.70;;;;;;;;;;5028698;28;20202;-67
2023/11/26 02:04:36;;;;;;;8.07;2.80;;;;;;;;;;5028564;28;20182;-67
2023/11/26 02:07:02;;;;;;;10.03;3.10;;;;;;;;;;5030038;28;20825;-67
2023/11/26 02:09:28;;;;;;;9.17;2.57;;;;;;;;;;5005164;28;20186;-67
2023/11/26 02:11:53;;;;;;;6.63;2.67;;;;;;;;;;5002608;28;20724;-68
2023/11/26 02:14:18;;;;;;;8.13;2.73;;;;;;;;;;5024662;28;20182;-67
2023/11/26 02:16:47;;;;;;;9.87;2.50;;;;;;;;;;5030043;28;20178;-67
2023/11/26 02:19:30;;;;;;;5.33;2.53;;;;;;;;;;5029997;28;20584;-68
2023/11/26 02:21:56;;;;;;;9.63;2.00;;;;;;;;;;5028048;28;20194;-67
2023/11/26 02:24:30;;;;;;;4.93;2.47;;;;;;;;;;5030325;28;20335;-67
2023/11/26 02:26:56;;;;;;;5.07;2.40;;;;;;;;;;5030192;28;20186;-68
2023/11/26 02:29:22;;;;;;;7.13;2.50;;;;;;;;;;5029643;28;20175;-67
2023/11/26 02:31:47;;;;;;;3.03;1.70;;;;;;;;;;5019443;28;20252;-67
2023/11/26 02:34:12;;;;;;;5.37;2.13;;;;;;;;;;5017154;28;20187;-67
2023/11/26 02:36:38;;;;;;;3.73;2.00;;;;;;;;;;5025650;28;20249;-68
2023/11/26 02:39:04;;;;;;;6.97;2.27;;;;;;;;;;5027587;28;20541;-67
2023/11/26 02:41:29;;;;;;;6.27;2.00;;;;;;;;;;5029995;28;20332;-68
2023/11/26 02:43:55;;;;;;;3.57;2.30;;;;;;;;;;5025004;28;20668;-67
2023/11/26 02:46:21;;;;;;;5.53;2.13;;;;;;;;;;5030375;28;20218;-67
2023/11/26 02:48:47;;;;;;;7.67;2.17;;;;;;;;;;5027144;28;20752;-67
2023/11/26 02:51:12;;;;;;;3.80;2.13;;;;;;;;;;5025907;28;20210;-67
2023/11/26 02:53:37;;;;;;;8.47;2.20;;;;;;;;;;5015516;28;20244;-67
2023/11/26 02:56:03;;;;;;;8.03;2.53;;;;;;;;;;5024806;28;20178;-67
2023/11/26 02:58:28;;;;;;;11.90;2.77;;;;;;;;;;5027637;28;20206;-67
2023/11/26 03:00:53;;;;;;;7.30;2.67;;;;;;;;;;5029701;28;20289;-68
2023/11/26 03:03:19;;;;;;;6.27;2.40;;;;;;;;;;5027108;28;20178;-67
2023/11/26 03:05:49;;;;;;;6.20;2.73;;;;;;;;;;5024537;28;20182;-68
2023/11/26 03:08:21;;;;;;;10.33;2.57;;;;;;;;;;5024696;28;20205;-67
2023/11/26 03:13:33;;;;;;;5.67;2.10;;;;;;;;;;5024287;28;20181;-68
2023/11/26 03:15:58;;;;;;;9.37;2.23;;;;;;;;;;5022743;28;20552;-67
2023/11/26 03:18:24;;;;;;;8.10;2.30;;;;;;;;;;5030301;28;20194;-67
2023/11/26 03:20:52;;;;;;;3.97;1.93;;;;;;;;;;5011843;28;20277;-67
2023/11/26 03:23:19;;;;;;;5.43;1.80;;;;;;;;;;5027472;28;20185;-68
2023/11/26 03:25:45;;;;;;;6.03;1.70;;;;;;;;;;5028505;28;20265;-68
2023/11/26 03:28:10;;;;;;;3.20;1.67;;;;;;;;;;5022248;28;20262;-67
2023/11/26 03:30:35;;;;;;;1.80;1.57;;;;;;;;;;5024896;28;20202;-68
2023/11/26 03:33:01;;;;;;;5.90;1.83;;;;;;;;;;5030126;28;20580;-67
2023/11/26 03:35:26;;;;;;;4.60;2.47;;;;;;;;;;5022692;28;20587;-67
2023/11/26 03:37:53;;;;;;;9.43;2.10;;;;;;;;;;5020241;28;20680;-67
2023/11/26 03:40:19;;;;;;;5.37;1.70;;;;;;;;;;5027264;28;20627;-67
2023/11/26 03:42:44;;;;;;;8.77;2.47;;;;;;;;;;5010549;28;20185;-67
2023/11/26 03:45:10;;;;;;;4.37;1.30;;;;;;;;;;5026394;28;20255;-67
2023/11/26 03:47:36;;;;;;;9.83;2.13;;;;;;;;;;5025979;28;20229;-67
2023/11/26 03:50:05;;;;;;;5.83;1.60;;;;;;;;;;5028835;28;20203;-67
2023/11/26 03:52:30;;;;;;;3.27;1.30;;;;;;;;;;5030648;28;20240;-67
2023/11/26 03:54:55;;;;;;;8.63;2.00;;;;;;;;;;5018446;28;20277;-68
2023/11/26 03:57:20;;;;;;;8.37;2.40;;;;;;;;;;5022838;28;20188;-67
2023/11/26 03:59:45;;;;;;;7.73;2.47;;;;;;;;;;5024777;28;20645;-67
2023/11/26 04:02:11;;;;;;;10.33;2.13;;;;;;;;;;5026574;28;20206;-67
2023/11/26 04:04:37;;;;;;;15.03;1.83;;;;;;;;;;5026752;28;20672;-68
2023/11/26 04:07:03;;;;;;;6.93;2.03;;;;;;;;;;5028262;28;20194;-67
2023/11/26 04:09:28;;;;;;;5.47;1.63;;;;;;;;;;5029747;28;20256;-67
2023/11/26 04:11:57;;;;;;;7.97;2.37;;;;;;;;;;5021352;28;20198;-67
2023/11/26 04:14:23;;;;;;;9.83;2.00;;;;;;;;;;5024279;28;20578;-67
2023/11/26 04:16:49;;;;;;;7.00;2.57;;;;;;;;;;5026354;28;20232;-67
2023/11/26 04:19:15;;;;;;;3.87;1.47;;;;;;;;;;5024099;28;20981;-68
2023/11/26 04:21:42;;;;;;;6.43;2.17;;;;;;;;;;5025461;28;20218;-67
2023/11/26 04:24:07;;;;;;;2.97;1.07;;;;;;;;;;5026089;28;20264;-68
2023/11/26 04:26:32;;;;;;;5.70;1.50;;;;;;;;;;5025278;28;20273;-67
2023/11/26 04:28:58;;;;;;;5.77;1.30;;;;;;;;;;5028080;28;20244;-67
2023/11/26 04:31:23;;;;;;;14.33;1.90;;;;;;;;;;5017641;28;20244;-67
2023/11/26 04:33:48;;;;;;;8.93;1.40;;;;;;;;;;5022304;28;20190;-67
2023/11/26 04:36:13;;;;;;;6.03;1.60;;;;;;;;;;5019566;28;20170;-67
2023/11/26 04:38:39;;;;;;;13.47;1.60;;;;;;;;;;5019757;28;20182;-67
2023/11/26 04:41:05;;;;;;;3.50;0.90;;;;;;;;;;5024520;28;20717;-67
2023/11/26 04:43:31;;;;;;;3.73;1.17;;;;;;;;;;5026187;28;20182;-67
2023/11/26 04:45:57;;;;;;;8.40;1.23;;;;;;;;;;5007740;28;20341;-67
2023/11/26 04:48:22;;;;;;;5.07;1.60;;;;;;;;;;5027148;28;20706;-67
2023/11/26 04:50:47;;;;;;;8.07;1.80;;;;;;;;;;5024631;28;20303;-67
2023/11/26 04:53:12;;;;;;;5.23;1.10;;;;;;;;;;5024984;28;20182;-68
2023/11/26 04:55:38;;;;;;;6.97;2.23;;;;;;;;;;5030653;28;20175;-67
2023/11/26 04:58:03;;;;;;;5.93;1.30;;;;;;;;;;5022398;28;20185;-68
2023/11/26 05:00:28;;;;;;;4.30;1.73;;;;;;;;;;5009235;28;20583;-67
2023/11/26 05:02:54;;;;;;;4.33;1.53;;;;;;;;;;5028819;28;20692;-68
2023/11/26 05:05:19;;;;;;;1.97;1.13;;;;;;;;;;5032507;28;20658;-67
2023/11/26 05:07:44;;;;;;;4.53;1.43;;;;;;;;;;5032273;28;20624;-67
2023/11/26 05:10:09;;;;;;;4.70;1.63;;;;;;;;;;5029813;28;20178;-67
2023/11/26 05:12:35;;;;;;;4.47;1.13;;;;;;;;;;5031372;28;20257;-68
2023/11/26 05:15:00;;;;;;;2.57;1.20;;;;;;;;;;5020681;28;20189;-68
2023/11/26 05:17:25;;;;;;;7.83;1.30;;;;;;;;;;5026125;28;20233;-67
2023/11/26 05:19:51;;;;;;;5.77;1.20;;;;;;;;;;5027066;28;20197;-67
2023/11/26 05:22:16;;;;;;;1.80;1.17;;;;;;;;;;5027514;28;20284;-67
2023/11/26 05:24:41;;;;;;;9.83;1.33;;;;;;;;;;5030879;28;20190;-67
2023/11/26 05:27:06;;;;;;;4.90;1.37;;;;;;;;;;5026582;28;20182;-67
2023/11/26 05:29:32;;;;;;;4.03;1.10;;;;;;;;;;5028912;28;20174;-68
2023/11/26 05:31:57;;;;;;;3.97;1.23;;;;;;;;;;5008947;28;20190;-68
2023/11/26 05:34:22;;;;;;;7.83;1.47;;;;;;;;;;5025797;28;20270;-68
2023/11/26 05:36:49;;;;;;;5.13;1.10;;;;;;;;;;5027814;28;20225;-68
2023/11/26 05:39:15;;;;;;;2.10;0.87;;;;;;;;;;5027335;28;20175;-68
2023/11/26 05:41:40;;;;;;;2.87;1.27;;;;;;;;;;5021165;28;20234;-67
2023/11/26 05:44:05;;;;;;;4.67;1.00;;;;;;;;;;5023304;28;20202;-67
2023/11/26 05:46:30;;;;;;;3.33;0.80;;;;;;;;;;5013729;28;20206;-68
2023/11/26 05:48:55;;;;;;;6.10;1.83;;;;;;;;;;5028029;28;20622;-67
2023/11/26 05:51:21;;;;;;;5.40;1.20;;;;;;;;;;5028688;28;20206;-68
2023/11/26 05:53:46;;;;;;;4.43;1.07;;;;;;;;;;5022771;28;20182;-68
2023/11/26 05:56:12;;;;;;;6.93;1.47;;;;;;;;;;5025181;28;20235;-68
2023/11/26 05:58:37;;;;;;;8.97;1.10;;;;;;;;;;5028165;28;20187;-68
2023/11/26 06:01:02;;;;;;;5.73;0.90;;;;;;;;;;5018427;28;20674;-67
2023/11/26 06:03:27;;;;;;;3.50;0.73;;;;;;;;;;5027990;28;20178;-67
2023/11/26 06:05:52;;;;;;;2.83;1.47;;;;;;;;;;5026779;28;20191;-67
2023/11/26 06:08:18;;;;;;;4.00;1.10;;;;;;;;;;5027391;28;20202;-68
2023/11/26 06:10:43;;;;;;;4.80;0.97;;;;;;;;;;5005834;28;20204;-68
2023/11/26 06:13:08;;;;;;;2.47;0.77;;;;;;;;;;5029601;28;20174;-67
2023/11/26 06:15:33;;;;;;;3.17;0.80;;;;;;;;;;5029189;28;20178;-68
2023/11/26 06:17:58;;;;;;;2.57;0.87;;;;;;;;;;5025233;28;20236;-68
2023/11/26 06:20:24;;;;;;;4.07;1.00;;;;;;;;;;5016291;28;20565;-68
2023/11/26 06:22:49;;;;;;;2.23;0.63;;;;;;;;;;5023928;28;20191;-68
2023/11/26 06:25:14;;;;;;;2.73;0.90;;;;;;;;;;5023435;28;20835;-67
2023/11/26 06:27:39;;;;;;;3.20;0.80;;;;;;;;;;5022642;28;20682;-67
2023/11/26 06:30:06;;;;;;;3.60;0.73;;;;;;;;;;5021662;28;20672;-67
2023/11/26 06:32:31;;;;;;;2.23;0.70;;;;;;;;;;5021893;28;20618;-68
2023/11/26 06:34:56;;;;;;;2.57;0.60;;;;;;;;;;5022585;28;20301;-68
2023/11/26 06:37:21;;;;;;;5.97;0.97;;;;;;;;;;5020870;28;20708;-67
2023/11/26 06:39:47;;;;;;;3.97;1.30;;;;;;;;;;5015396;28;20356;-67
2023/11/26 06:42:13;;;;;;;3.03;0.80;;;;;;;;;;5005545;28;20285;-67
2023/11/26 06:44:38;;;;;;;2.20;0.70;;;;;;;;;;5027296;28;20181;-67
2023/11/26 06:47:04;;;;;;;5.37;1.17;;;;;;;;;;5026577;28;20175;-67
2023/11/26 06:49:29;;;;;;;2.23;1.03;;;;;;;;;;5001977;28;20171;-67
2023/11/26 06:51:55;;;;;;;3.97;1.50;;;;;;;;;;5023281;28;20609;-67
2023/11/26 06:54:21;;;;;;;3.93;0.80;;;;;;;;;;5024641;28;20569;-67
2023/11/26 06:56:46;;;;;;;6.33;1.13;;;;;;;;;;5020779;28;20194;-67
2023/11/26 06:59:11;;;;;;;2.67;0.90;;;;;;;;;;5019708;28;20190;-67
2023/11/26 07:01:36;;;;;;;2.33;0.73;;;;;;;;;;5020917;28;20198;-67
2023/11/26 07:04:02;;;;;;;5.60;1.30;;;;;;;;;;5021354;28;20186;-67
2023/11/26 07:06:27;;;;;;;2.57;0.80;;;;;;;;;;5020021;28;20189;-67
2023/11/26 07:08:52;;;;;;;1.63;0.53;;;;;;;;;;5029406;28;20197;-67
2023/11/26 07:11:18;;;;;;;5.43;0.80;;;;;;;;;;5021876;28;20194;-67
2023/11/26 07:13:44;;;;;;;11.23;1.77;;;;;;;;;;5021997;28;20166;-67
2023/11/26 07:16:10;;;;;;;2.43;0.90;;;;;;;;;;5024591;28;20538;-67
2023/11/26 07:18:35;;;;;;;6.17;1.10;;;;;;;;;;5016643;28;20261;-67
2023/11/26 07:21:00;;;;;;;2.97;1.43;;;;;;;;;;5007182;28;20256;-67
2023/11/26 07:23:25;;;;;;;5.70;1.50;;;;;;;;;;5027963;28;20677;-67
2023/11/26 07:25:51;;;;;;;13.40;1.67;;;;;;;;;;5027603;28;20178;-68
2023/11/26 07:28:16;;;;;;;4.90;1.50;;;;;;;;;;5030012;28;20225;-68
2023/11/26 07:30:44;;;;;;;4.97;1.30;;;;;;;;;;5021963;28;20194;-68
2023/11/26 07:33:09;;;;;;;3.93;1.40;;;;;;;;;;5029710;28;20198;-68
2023/11/26 07:35:35;;;;;;;3.83;1.30;;;;;;;;;;5024875;28;20258;-68
2023/11/26 07:38:01;;;;;;;3.63;1.40;;;;;;;;;;5025527;28;20174;-68
2023/11/26 07:40:26;;;;;;;4.03;1.60;;;;;;;;;;5018347;28;20194;-68
2023/11/26 07:42:52;;;;;;;4.17;1.73;;;;;;;;;;5025495;28;20252;-66
2023/11/26 07:45:17;;;;;;;6.70;2.20;;;;;;;;;;5023178;28;20228;-66
2023/11/26 07:47:42;;;;;;;5.80;2.60;;;;;;;;;;5028914;28;20186;-67
2023/11/26 07:50:07;;;;;;;5.83;2.37;;;;;;;;;;5021656;28;20193;-66
2023/11/26 07:52:34;;;;;;;5.13;2.80;;;;;;;;;;5027970;28;20178;-67
2023/11/26 07:55:01;;;;;;;5.93;1.90;;;;;;;;;;5028687;28;20543;-66
2023/11/26 07:57:27;;;;;;;7.63;1.87;;;;;;;;;;5006715;28;20677;-67
2023/11/26 07:59:52;;;;;;;8.37;2.40;;;;;;;;;;5007143;28;20186;-66
2023/11/26 08:02:18;;;;;;;11.20;2.20;;;;;;;;;;5012057;28;20209;-67
2023/11/26 08:04:44;;;;;;;8.63;2.07;;;;;;;;;;5009158;28;20187;-67
2023/11/26 08:07:09;;;;;;;6.03;2.00;;;;;;;;;;4993561;28;20178;-66
2023/11/26 08:09:36;;;;;;;4.73;2.50;;;;;;;;;;5007519;28;20177;-66
2023/11/26 08:12:02;;;;;;;7.17;1.90;;;;;;;;;;5007610;28;20209;-67
2023/11/26 08:14:27;;;;;;;6.53;2.07;;;;;;;;;;5012630;28;20178;-67
2023/11/26 08:16:54;;;;;;;3.70;2.00;;;;;;;;;;5010329;28;20208;-66
2023/11/26 08:19:19;;;;;;;4.83;2.40;;;;;;;;;;5019078;28;20179;-67
2023/11/26 08:21:45;;;;;;;4.70;2.10;;;;;;;;;;5016193;28;20241;-67
2023/11/26 08:24:13;;;;;;;5.40;1.70;;;;;;;;;;5012856;28;20680;-67
2023/11/26 08:26:45;;;;;;;7.33;2.27;;;;;;;;;;5011457;28;20190;-67
2023/11/26 08:29:10;;;;;;;6.90;1.50;;;;;;;;;;4996149;28;20209;-66
2023/11/26 08:31:37;;;;;;;5.30;2.37;;;;;;;;;;5014143;28;20199;-66
2023/11/26 08:34:05;;;;;;;5.87;1.80;;;;;;;;;;4998085;28;20257;-66
2023/11/26 08:36:31;;;;;;;4.60;1.30;;;;;;;;;;5012343;28;20175;-66
2023/11/26 08:38:57;;;;;;;7.03;1.90;;;;;;;;;;5011774;28;20179;-66
2023/11/26 08:41:22;;;;;;;3.07;1.57;;;;;;;;;;5011500;28;20261;-67
2023/11/26 08:43:50;;;;;;;9.43;1.73;;;;;;;;;;5011649;28;20927;-66
2023/11/26 08:46:16;;;;;;;5.80;2.10;;;;;;;;;;5011675;28;20240;-66
2023/11/26 08:48:41;;;;;;;11.43;2.67;;;;;;;;;;5011095;28;20210;-67
2023/11/26 08:51:07;;;;;;;7.20;1.87;;;;;;;;;;5012230;28;20213;-67
2023/11/26 08:53:33;;;;;;;4.47;2.30;;;;;;;;;;5012107;28;20189;-67
2023/11/26 08:55:58;;;;;;;4.37;2.00;;;;;;;;;;5010962;28;20248;-67
2023/11/26 08:58:23;;;;;;;9.63;2.83;;;;;;;;;;5013362;28;20232;-67
2023/11/26 09:00:48;;;;;;;7.57;2.23;;;;;;;;;;5011071;28;20197;-67
2023/11/26 09:03:14;;;;;;;4.33;2.30;;;;;;;;;;5012888;28;20206;-68
2023/11/26 09:05:39;;;;;;;9.13;2.93;;;;;;;;;;5011798;28;20400;-67
2023/11/26 09:08:05;;;;;;;5.87;1.97;;;;;;;;;;5011836;28;20321;-67
2023/11/26 09:10:30;;;;;;;5.50;2.03;;;;;;;;;;5013921;28;20240;-67
2023/11/26 09:12:55;;;;;;;5.53;3.17;;;;;;;;;;5013039;28;20178;-67
2023/11/26 09:15:25;;;;;;;11.23;3.10;;;;;;;;;;5013362;28;20186;-67
2023/11/26 09:17:50;;;;;;;6.57;1.97;;;;;;;;;;5012079;28;20182;-69
2023/11/26 09:20:15;;;;;;;7.27;2.50;;;;;;;;;;5010474;28;20179;-68
2023/11/26 09:22:41;;;;;;;8.13;3.00;;;;;;;;;;5013805;28;20706;-68
2023/11/26 09:25:13;;;;;;;6.97;2.67;;;;;;;;;;5011242;28;20221;-69
2023/11/26 09:27:38;;;;;;;4.10;2.07;;;;;;;;;;5010674;28;20253;-67
2023/11/26 09:30:08;;;;;;;4.20;2.27;;;;;;;;;;5011121;28;20208;-68
2023/11/26 09:32:33;;;;;;;6.50;2.40;;;;;;;;;;4995416;28;22172;-69
2023/11/26 09:34:58;;;;;;;7.87;1.87;;;;;;;;;;5010421;28;20171;-68
2023/11/26 09:37:23;;;;;;;3.23;1.70;;;;;;;;;;5010027;28;20181;-68
2023/11/26 09:39:49;;;;;;;6.70;1.70;;;;;;;;;;5011439;28;20565;-69
2023/11/26 09:42:14;;;;;;;3.47;1.70;;;;;;;;;;5010620;28;20258;-68
2023/11/26 09:44:43;;;;;;;9.97;1.93;;;;;;;;;;5011381;28;20376;-69
2023/11/26 09:47:10;;;;;;;6.57;1.50;;;;;;;;;;5011891;28;20171;-68
2023/11/26 09:49:35;;;;;;;8.63;1.73;;;;;;;;;;5015018;28;20182;-69
2023/11/26 09:52:02;;;;;;;6.47;2.43;;;;;;;;;;4993884;28;20214;-68
2023/11/26 09:54:27;;;;;;;4.80;1.20;;;;;;;;;;5010752;28;20678;-68
2023/11/26 09:56:55;;;;;;;6.37;1.40;;;;;;;;;;5013772;28;20170;-68
2023/11/26 09:59:24;;;;;;;4.60;1.40;;;;;;;;;;5010940;28;20251;-69
2023/11/26 10:01:50;;;;;;;9.03;1.07;;;;;;;;;;5012431;28;20198;-68
2023/11/26 10:04:15;;;;;;;4.30;1.10;;;;;;;;;;5011441;28;20182;-69
2023/11/26 10:06:40;;;;;;;3.00;1.13;;;;;;;;;;5009066;28;20190;-69
2023/11/26 10:09:16;;;;;;;7.63;2.17;;;;;;;;;;5009831;28;20217;-67
2023/11/26 10:11:41;;;;;;;6.23;1.27;;;;;;;;;;4993820;28;20650;-67
2023/11/26 10:14:12;;;;;;;3.93;1.37;;;;;;;;;;4993462;28;20274;-67
2023/11/26 10:16:37;;;;;;;2.47;1.17;;;;;;;;;;4994780;28;20194;-67
2023/11/26 10:19:03;;;;;;;6.50;1.90;;;;;;;;;;5011379;28;20210;-67
2023/11/26 10:21:29;;;;;;;2.93;1.40;;;;;;;;;;5009499;28;20202;-67
2023/11/26 10:23:54;;;;;;;7.00;2.10;;;;;;;;;;5009452;28;20277;-67
2023/11/26 10:26:22;;;;;;;4.23;1.30;;;;;;;;;;5011618;28;20175;-67
2023/11/26 10:28:59;;;;;;;5.70;1.50;;;;;;;;;;5011023;28;20209;-67
2023/11/26 10:31:25;;;;;;;3.27;1.20;;;;;;;;;;5012601;28;20197;-68
2023/11/26 10:33:50;;;;;;;4.00;1.37;;;;;;;;;;5019909;28;20174;-67
2023/11/26 10:36:30;;;;;;;4.63;1.30;;;;;;;;;;5015670;28;20171;-68
2023/11/26 10:38:56;;;;;;;2.20;1.03;;;;;;;;;;4995500;28;20183;-68
2023/11/26 10:41:23;;;;;;;3.63;1.97;;;;;;;;;;5009170;28;20208;-68
2023/11/26 10:43:49;;;;;;;6.33;1.50;;;;;;;;;;5008794;28;20216;-67
2023/11/26 10:46:15;;;;;;;8.63;1.83;;;;;;;;;;5006942;28;20244;-68
2023/11/26 10:48:45;;;;;;;3.43;1.30;;;;;;;;;;5008872;28;20209;-68
2023/11/26 10:51:17;;;;;;;6.30;1.50;;;;;;;;;;5008965;28;20210;-69
2023/11/26 10:53:43;;;;;;;6.13;1.77;;;;;;;;;;5010095;28;20201;-68
2023/11/26 10:56:11;;;;;;;3.77;1.43;;;;;;;;;;4984572;28;20179;-69
2023/11/26 10:58:38;;;;;;;7.33;1.77;;;;;;;;;;5008053;28;20192;-69
2023/11/26 11:01:03;;;;;;;7.70;1.87;;;;;;;;;;4991735;28;20199;-68
2023/11/26 11:03:29;;;;;;;8.33;1.97;;;;;;;;;;5006701;28;20212;-68
2023/11/26 11:05:54;;;;;;;4.73;1.50;;;;;;;;;;5009326;28;20186;-68
2023/11/26 11:08:19;;;;;;;3.37;1.67;;;;;;;;;;5009756;28;20197;-69
2023/11/26 11:10:45;;;;;;;7.90;2.10;;;;;;;;;;5008692;28;20190;-68
2023/11/26 11:13:16;;;;;;;3.33;1.60;;;;;;;;;;5006360;28;20182;-68
2023/11/26 11:15:43;;;;;;;2.33;1.20;;;;;;;;;;5007318;28;20175;-68
2023/11/26 11:18:26;;;;;;;8.17;1.80;;;;;;;;;;4991032;28;20759;-68
2023/11/26 11:21:05;;;;;;;4.00;1.67;;;;;;;;;;5009435;28;20201;-69
2023/11/26 11:23:34;;;;;;;5.67;1.30;;;;;;;;;;5008321;28;20194;-68
2023/11/26 11:26:00;;;;;;;5.00;1.90;;;;;;;;;;5008720;28;20236;-68
2023/11/26 11:28:47;;;;;;;3.83;1.50;;;;;;;;;;5007379;28;20634;-68
2023/11/26 11:31:17;;;;;;;7.67;2.27;;;;;;;;;;5010377;28;20198;-69
2023/11/26 11:34:00;;;;;;;4.60;1.53;;;;;;;;;;5008007;28;20183;-69
2023/11/26 11:36:41;;;;;;;3.47;1.73;;;;;;;;;;5009774;28;20187;-68
2023/11/26 11:39:06;;;;;;;3.63;1.17;;;;;;;;;;5005700;28;20259;-68
2023/11/26 11:41:51;;;;;;;6.43;1.37;;;;;;;;;;4992822;28;20710;-68
2023/11/26 11:44:36;;;;;;;4.27;1.40;;;;;;;;;;5008913;28;20249;-68
2023/11/26 11:47:05;;;;;;;6.00;1.97;;;;;;;;;;5012730;28;20279;-68
2023/11/26 11:49:56;;;;;;;4.13;1.03;;;;;;;;;;5010818;28;20245;-68
2023/11/26 11:52:22;;;;;;;3.13;1.23;;;;;;;;;;4988743;28;20993;-68
2023/11/26 11:54:57;;;;;;;2.07;1.03;;;;;;;;;;5008537;28;20186;-68
2023/11/26 11:57:23;;;;;;;8.90;1.87;;;;;;;;;;5011187;28;20193;-68
2023/11/26 11:59:49;;;;;;;1.97;0.90;;;;;;;;;;5006636;28;20232;-68
2023/11/26 12:02:16;;;;;;;4.90;1.60;;;;;;;;;;5007985;28;20210;-68
2023/11/26 12:04:46;;;;;;;4.67;0.90;;;;;;;;;;5007987;28;20193;-68
2023/11/26 12:07:11;;;;;;;2.87;1.17;;;;;;;;;;5006752;28;20178;-68
2023/11/26 12:09:38;;;;;;;5.80;1.50;;;;;;;;;;5008010;28;20178;-68
2023/11/26 12:12:03;;;;;;;4.03;1.17;;;;;;;;;;5007387;28;20260;-68
2023/11/26 12:14:28;;;;;;;5.60;1.13;;;;;;;;;;5005933;28;20186;-68
2023/11/26 12:16:54;;;;;;;3.43;1.23;;;;;;;;;;5006902;28;20182;-68
2023/11/26 12:19:19;;;;;;;3.93;1.50;;;;;;;;;;5008732;28;20192;-68
2023/11/26 12:21:44;;;;;;;8.60;2.17;;;;;;;;;;5007781;28;20213;-68
2023/11/26 12:24:19;;;;;;;5.10;1.77;;;;;;;;;;5007030;28;20193;-68
2023/11/26 12:26:44;;;;;;;2.63;1.63;;;;;;;;;;5008793;28;20593;-68
2023/11/26 12:29:14;;;;;;;4.00;1.43;;;;;;;;;;5007152;28;20220;-68
2023/11/26 12:31:39;;;;;;;2.90;0.93;;;;;;;;;;5009274;28;20197;-68
2023/11/26 12:34:05;;;;;;;3.70;1.40;;;;;;;;;;4993828;28;20206;-68
2023/11/26 12:36:30;;;;;;;3.27;1.03;;;;;;;;;;5009671;28;20290;-68
2023/11/26 12:38:55;;;;;;;5.40;1.00;;;;;;;;;;5008447;28;20202;-70
2023/11/26 12:41:21;;;;;;;10.43;1.50;;;;;;;;;;5006635;28;20307;-68
2023/11/26 12:43:46;;;;;;;3.77;1.57;;;;;;;;;;5008572;28;20178;-68
2023/11/26 12:46:13;;;;;;;2.67;0.90;;;;;;;;;;5008173;28;20186;-68
2023/11/26 12:48:38;;;;;;;0.90;0.77;;;;;;;;;;5010967;28;20305;-68
2023/11/26 12:51:04;;;;;;;5.93;1.10;;;;;;;;;;5022361;28;20855;-68
2023/11/26 12:53:29;;;;;;;4.00;1.43;;;;;;;;;;5006295;28;20273;-68
2023/11/26 12:55:54;;;;;;;3.17;0.87;;;;;;;;;;5008441;28;20179;-68
2023/11/26 12:58:20;;;;;;;5.27;0.97;;;;;;;;;;5012632;28;20226;-68
2023/11/26 13:00:46;;;;;;;1.20;0.70;;;;;;;;;;5009265;28;20228;-68
2023/11/26 13:03:14;;;;;;;3.57;0.93;;;;;;;;;;5027942;28;20646;-69
2023/11/26 13:05:40;;;;;;;3.73;0.90;;;;;;;;;;5011047;28;20677;-68
2023/11/26 13:08:16;;;;;;;4.10;1.13;;;;;;;;;;5012565;28;20210;-68
2023/11/26 13:10:45;;;;;;;4.17;0.73;;;;;;;;;;5009823;28;20202;-68
2023/11/26 13:13:12;;;;;;;2.70;0.60;;;;;;;;;;5010523;28;20182;-69
2023/11/26 13:15:37;;;;;;;3.13;0.90;;;;;;;;;;5010933;28;20182;-68
2023/11/26 13:18:02;;;;;;;3.80;0.67;;;;;;;;;;5012600;28;20248;-68
2023/11/26 13:20:28;;;;;;;6.60;0.60;;;;;;;;;;5009818;28;20202;-69
2023/11/26 13:22:54;;;;;;;1.00;0.70;;;;;;;;;;5012280;28;20194;-68
2023/11/26 13:25:20;;;;;;;3.20;0.77;;;;;;;;;;5011281;28;20771;-68
2023/11/26 13:27:45;;;;;;;5.93;0.70;;;;;;;;;;5010186;28;20241;-68
2023/11/26 13:30:11;;;;;;;2.33;0.63;;;;;;;;;;5011477;28;20279;-68
2023/11/26 13:32:36;;;;;;;1.73;0.60;;;;;;;;;;5009577;28;20190;-68
2023/11/26 13:35:01;;;;;;;2.73;0.70;;;;;;;;;;4993001;28;20202;-68
2023/11/26 13:37:26;;;;;;;2.37;0.47;;;;;;;;;;5009443;28;20190;-68
2023/11/26 13:39:52;;;;;;;2.70;0.63;;;;;;;;;;5009772;28;20186;-67
2023/11/26 13:42:17;;;;;;;2.50;0.90;;;;;;;;;;5009242;28;20965;-67
2023/11/26 13:44:42;;;;;;;4.43;1.67;;;;;;;;;;5010805;28;20193;-67
2023/11/26 13:47:07;;;;;;;2.03;0.77;;;;;;;;;;5010624;28;20296;-67
2023/11/26 13:49:32;;;;;;;3.80;0.53;;;;;;;;;;5012119;28;20206;-67
2023/11/26 13:52:00;;;;;;;2.53;0.70;;;;;;;;;;5017910;28;20363;-67
2023/11/26 13:54:25;;;;;;;2.10;0.40;;;;;;;;;;4993136;28;20613;-67
2023/11/26 13:56:50;;;;;;;2.10;1.00;;;;;;;;;;5012499;28;20251;-67
2023/11/26 13:59:17;;;;;;;3.03;0.80;;;;;;;;;;5009359;28;20186;-67
2023/11/26 14:01:43;;;;;;;1.03;0.80;;;;;;;;;;5009145;28;20211;-67
2023/11/26 14:04:08;;;;;;;2.87;0.90;;;;;;;;;;4994131;28;20182;-67
2023/11/26 14:06:33;;;;;;;1.50;1.00;;;;;;;;;;5006643;28;20182;-68
2023/11/26 14:08:59;;;;;;;4.03;1.20;;;;;;;;;;5008628;28;20277;-67
2023/11/26 14:11:25;;;;;;;2.00;0.93;;;;;;;;;;5009425;28;20588;-67
2023/11/26 14:13:50;;;;;;;4.07;1.33;;;;;;;;;;5009060;28;21700;-67
2023/11/26 14:16:15;;;;;;;2.97;1.93;;;;;;;;;;5013770;28;20174;-67
2023/11/26 14:18:40;;;;;;;2.70;1.50;;;;;;;;;;5009561;28;20231;-67
2023/11/26 14:21:06;;;;;;;2.97;1.90;;;;;;;;;;5010450;28;20605;-67
2023/11/26 14:23:32;;;;;;;7.43;2.03;;;;;;;;;;5009556;28;20277;-67
2023/11/26 14:25:57;;;;;;;4.87;2.63;;;;;;;;;;5009243;28;20991;-68
2023/11/26 14:28:23;;;;;;;5.70;2.97;;;;;;;;;;5022137;28;20199;-67
2023/11/26 14:30:48;;;;;;;4.33;2.77;;;;;;;;;;5014398;28;20232;-69
2023/11/26 14:33:13;;;;;;;11.70;2.10;;;;;;;;;;5010063;28;20256;-67
2023/11/26 14:35:39;;;;;;;5.93;1.93;;;;;;;;;;4997108;28;20916;-67
2023/11/26 14:38:08;;;;;;;6.67;1.73;;;;;;;;;;5008239;28;20178;-67
2023/11/26 14:40:36;;;;;;;4.97;1.77;;;;;;;;;;5009192;28;20639;-67